Time,TemperatureF,DewpointF,PressureIn,WindDirection,WindDirectionDegrees,WindSpeedMPH,WindSpeedGustMPH,Humidity,HourlyPrecipIn,Conditions,Clouds,dailyrainin,SolarRadiationWatts/m^2,SoftwareType,DateUTC
2013-09-17 00:00:00,60.5,47.4,29.49,WNW,302,0.0,0.0,62,0.00,,,0.01,0,Wunderground v.1.15,2013-09-17 06:00:00,
2013-09-17 00:05:00,60.4,47.3,29.49,WNW,302,0.0,0.0,62,0.00,,,0.00,0,Wunderground v.1.15,2013-09-17 06:05:00,
2013-09-17 00:10:00,60.5,47.4,29.49,WNW,303,0.0,0.0,62,0.00,,,0.00,0,Wunderground v.1.15,2013-09-17 06:10:00,
2013-09-17 00:15:00,60.5,47.0,29.49,WNW,302,0.0,0.0,61,0.00,,,0.00,0,Wunderground v.1.15,2013-09-17 06:15:00,
2013-09-17 00:20:00,60.4,47.3,29.49,WNW,302,0.0,0.0,62,0.00,,,0.00,0,Wunderground v.1.15,2013-09-17 06:20:00,
2013-09-17 00:30:00,60.3,47.6,29.48,WNW,302,0.0,0.0,63,0.00,,,0.00,0,Wunderground v.1.15,2013-09-17 06:30:00,
2013-09-17 00:35:00,60.2,48.0,29.48,WSW,239,0.0,0.0,64,0.00,,,0.00,0,Wunderground v.1.15,2013-09-17 06:35:00,
2013-09-17 00:45:00,60.0,47.8,29.48,WSW,256,0.0,0.0,64,0.00,,,0.00,0,Wunderground v.1.15,2013-09-17 06:45:00,
2013-09-17 00:50:00,59.9,47.7,29.48,WSW,256,0.0,0.0,64,0.00,,,0.00,0,Wunderground v.1.15,2013-09-17 06:50:00,
2013-09-17 00:55:00,60.0,47.8,29.48,WSW,256,0.0,0.0,64,0.00,,,0.00,0,Wunderground v.1.15,2013-09-17 06:55:00,
2013-09-17 01:05:00,60.2,48.4,29.47,WNW,299,1.0,4.0,65,0.00,,,0.00,0,Wunderground v.1.15,2013-09-17 07:05:00,
2013-09-17 01:15:00,60.1,48.7,29.48,ENE,64,1.0,1.0,66,0.00,,,0.00,0,Wunderground v.1.15,2013-09-17 07:15:00,
2013-09-17 01:25:00,59.4,48.4,29.47,SSW,194,1.0,1.0,67,0.00,,,0.00,0,Wunderground v.1.15,2013-09-17 07:25:00,
2013-09-17 01:30:00,59.0,48.4,29.46,NW,310,1.0,5.0,68,0.00,,,0.00,0,Wunderground v.1.15,2013-09-17 07:30:00,
2013-09-17 01:35:00,59.0,48.4,29.46,WNW,298,2.0,5.0,68,0.00,,,0.00,0,Wunderground v.1.15,2013-09-17 07:35:00,
2013-09-17 01:40:00,59.0,47.7,29.46,WNW,298,1.0,1.0,66,0.00,,,0.00,0,Wunderground v.1.15,2013-09-17 07:40:00,
2013-09-17 01:45:00,59.2,48.2,29.46,WNW,299,0.0,3.0,67,0.00,,,0.00,0,Wunderground v.1.15,2013-09-17 07:45:00,
2013-09-17 01:50:00,59.8,48.0,29.46,SSW,197,1.0,1.0,65,0.00,,,0.00,0,Wunderground v.1.15,2013-09-17 07:50:00,
2013-09-17 01:55:00,60.3,48.1,29.46,SSW,197,1.0,1.0,64,0.00,,,0.00,0,Wunderground v.1.15,2013-09-17 07:55:00,
2013-09-17 02:00:00,60.9,47.8,29.46,SW,227,0.0,3.0,62,0.00,,,0.00,0,Wunderground v.1.15,2013-09-17 08:00:00,
2013-09-17 02:10:00,63.1,46.2,29.46,SW,222,4.0,6.0,54,0.00,,,0.00,0,Wunderground v.1.15,2013-09-17 08:10:00,
2013-09-17 02:15:00,64.8,46.8,29.46,SSW,202,4.0,6.0,52,0.00,,,0.00,0,Wunderground v.1.15,2013-09-17 08:15:00,
2013-09-17 02:20:00,66.7,46.9,29.46,SW,226,5.0,5.0,49,0.00,,,0.00,0,Wunderground v.1.15,2013-09-17 08:20:00,
2013-09-17 02:30:00,68.8,47.2,29.45,SSW,212,4.0,11.0,46,0.00,,,0.00,0,Wunderground v.1.15,2013-09-17 08:30:00,
2013-09-17 02:35:00,69.6,47.3,29.45,WSW,251,6.0,11.0,45,0.00,,,0.00,0,Wunderground v.1.15,2013-09-17 08:35:00,
2013-09-17 02:40:00,69.9,47.0,29.45,West,260,5.0,7.0,44,0.00,,,0.00,0,Wunderground v.1.15,2013-09-17 08:40:00,
2013-09-17 02:50:00,69.8,46.9,29.45,SW,227,5.0,5.0,44,0.00,,,0.00,0,Wunderground v.1.15,2013-09-17 08:50:00,
2013-09-17 02:55:00,69.8,46.3,29.45,WSW,254,6.0,6.0,43,0.00,,,0.00,0,Wunderground v.1.15,2013-09-17 08:55:00,
2013-09-17 03:00:00,70.1,46.6,29.45,WSW,254,5.0,5.0,43,0.00,,,0.00,0,Wunderground v.1.15,2013-09-17 09:00:00,
2013-09-17 03:05:00,70.4,46.2,29.44,WSW,239,5.0,7.0,42,0.00,,,0.00,0,Wunderground v.1.15,2013-09-17 09:05:00,
2013-09-17 03:10:00,70.2,46.0,29.44,SW,231,5.0,5.0,42,0.00,,,0.00,0,Wunderground v.1.15,2013-09-17 09:10:00,
2013-09-17 03:15:00,70.3,46.1,29.44,WSW,250,6.0,7.0,42,0.00,,,0.00,0,Wunderground v.1.15,2013-09-17 09:15:00,
2013-09-17 03:25:00,70.7,46.5,29.44,SSW,202,6.0,7.0,42,0.00,,,0.00,0,Wunderground v.1.15,2013-09-17 09:25:00,
2013-09-17 03:30:00,70.7,46.5,29.44,SW,233,6.0,6.0,42,0.00,,,0.00,0,Wunderground v.1.15,2013-09-17 09:30:00,
2013-09-17 03:40:00,70.4,46.2,29.43,SW,220,8.0,8.0,42,0.00,,,0.00,0,Wunderground v.1.15,2013-09-17 09:40:00,
2013-09-17 03:45:00,70.5,46.3,29.43,South,185,9.0,9.0,42,0.00,,,0.00,0,Wunderground v.1.15,2013-09-17 09:45:00,
2013-09-17 03:50:00,70.6,46.4,29.43,SW,220,7.0,7.0,42,0.00,,,0.00,0,Wunderground v.1.15,2013-09-17 09:50:00,
2013-09-17 04:00:00,70.6,46.4,29.43,WNW,284,5.0,8.0,42,0.00,,,0.00,0,Wunderground v.1.15,2013-09-17 10:00:00,
2013-09-17 04:05:00,70.3,46.1,29.43,West,275,5.0,10.0,42,0.00,,,0.00,0,Wunderground v.1.15,2013-09-17 10:05:00,
2013-09-17 04:15:00,70.7,45.8,29.42,SW,236,7.0,8.0,41,0.00,,,0.00,0,Wunderground v.1.15,2013-09-17 10:15:00,
2013-09-17 04:20:00,70.8,45.9,29.42,WSW,251,7.0,7.0,41,0.00,,,0.00,0,Wunderground v.1.15,2013-09-17 10:20:00,
2013-09-17 04:25:00,71.0,46.1,29.42,SW,220,6.0,7.0,41,0.00,,,0.00,0,Wunderground v.1.15,2013-09-17 10:25:00,
2013-09-17 04:35:00,70.8,45.9,29.43,West,261,6.0,10.0,41,0.00,,,0.00,0,Wunderground v.1.15,2013-09-17 10:35:00,
2013-09-17 04:40:00,70.6,46.4,29.43,WSW,243,7.0,9.0,42,0.00,,,0.00,0,Wunderground v.1.15,2013-09-17 10:40:00,
2013-09-17 04:45:00,70.8,45.3,29.43,WSW,244,7.0,9.0,40,0.00,,,0.00,0,Wunderground v.1.15,2013-09-17 10:45:00,
2013-09-17 04:50:00,71.1,45.5,29.43,SW,236,8.0,9.0,40,0.00,,,0.00,0,Wunderground v.1.15,2013-09-17 10:50:00,
2013-09-17 04:55:00,71.2,45.6,29.43,WSW,244,8.0,9.0,40,0.00,,,0.00,0,Wunderground v.1.15,2013-09-17 10:55:00,
2013-09-17 05:00:00,71.2,45.0,29.43,WSW,248,10.0,10.0,39,0.00,,,0.00,0,Wunderground v.1.15,2013-09-17 11:00:00,
2013-09-17 05:05:00,71.2,45.0,29.41,South,180,10.0,10.0,39,0.00,,,0.00,0,Wunderground v.1.15,2013-09-17 11:05:00,
2013-09-17 05:10:00,70.8,45.3,29.37,SE,133,11.0,23.0,40,0.00,,,0.00,0,Wunderground v.1.15,2013-09-17 11:10:00,
2013-09-17 05:15:00,70.7,45.2,29.42,South,191,17.0,24.0,40,0.00,,,0.00,0,Wunderground v.1.15,2013-09-17 11:15:00,
2013-09-17 05:25:00,70.3,45.5,29.43,South,175,16.0,20.0,41,0.00,,,0.00,0,Wunderground v.1.15,2013-09-17 11:25:00,
2013-09-17 05:30:00,69.7,45.6,29.43,SW,232,14.0,23.0,42,0.00,,,0.00,0,Wunderground v.1.15,2013-09-17 11:30:00,
2013-09-17 05:35:00,69.5,44.1,29.41,South,191,15.0,23.0,40,0.00,,,0.00,0,Wunderground v.1.15,2013-09-17 11:35:00,
2013-09-17 05:40:00,69.4,44.0,29.41,WSW,252,16.0,21.0,40,0.00,,,0.00,0,Wunderground v.1.15,2013-09-17 11:40:00,
2013-09-17 05:50:00,69.5,43.4,29.39,SW,222,12.0,19.0,39,0.00,,,0.00,0,Wunderground v.1.15,2013-09-17 11:50:00,
2013-09-17 05:55:00,69.6,42.9,29.39,SW,231,13.0,19.0,38,0.00,,,0.00,0,Wunderground v.1.15,2013-09-17 11:55:00,
2013-09-17 06:05:00,69.6,42.9,29.40,SSW,207,13.0,18.0,38,0.00,,,0.00,0,Wunderground v.1.15,2013-09-17 12:05:00,
2013-09-17 06:10:00,69.4,42.7,29.40,SW,231,12.0,16.0,38,0.00,,,0.00,0,Wunderground v.1.15,2013-09-17 12:10:00,
2013-09-17 06:15:00,69.3,42.6,29.40,SW,233,11.0,16.0,38,0.00,,,0.00,0,Wunderground v.1.15,2013-09-17 12:15:00,
2013-09-17 06:20:00,69.3,42.6,29.40,SW,229,11.0,12.0,38,0.00,,,0.00,0,Wunderground v.1.15,2013-09-17 12:20:00,
2013-09-17 06:25:00,69.2,41.8,29.41,WSW,258,9.0,12.0,37,0.00,,,0.00,0,Wunderground v.1.15,2013-09-17 12:25:00,
2013-09-17 06:30:00,69.3,41.9,29.40,SW,236,8.0,8.0,37,0.00,,,0.00,0,Wunderground v.1.15,2013-09-17 12:30:00,
2013-09-17 06:35:00,69.4,41.3,29.40,West,269,8.0,9.0,36,0.00,,,0.00,0,Wunderground v.1.15,2013-09-17 12:35:00,
2013-09-17 06:40:00,69.4,40.5,29.41,SSW,207,7.0,7.0,35,0.00,,,0.00,0,Wunderground v.1.15,2013-09-17 12:40:00,
2013-09-17 06:45:00,69.5,40.6,29.41,WSW,248,5.0,7.0,35,0.00,,,0.00,0,Wunderground v.1.15,2013-09-17 12:45:00,
2013-09-17 06:50:00,69.6,40.7,29.40,SW,220,4.0,4.0,35,0.00,,,0.00,0,Wunderground v.1.15,2013-09-17 12:50:00,
2013-09-17 07:00:00,69.6,40.7,29.40,WSW,254,2.0,2.0,35,0.00,,,0.00,0,Wunderground v.1.15,2013-09-17 13:00:00,
2013-09-17 07:10:00,69.1,42.4,29.40,WSW,254,1.0,4.0,38,0.00,,,0.00,0,Wunderground v.1.15,2013-09-17 13:10:00,
2013-09-17 07:20:00,67.6,42.4,29.40,SE,138,1.0,1.0,40,0.00,,,0.00,12,Wunderground v.1.15,2013-09-17 13:20:00,
2013-09-17 07:25:00,67.2,43.3,29.40,WNW,299,1.0,4.0,42,0.00,,,0.00,16,Wunderground v.1.15,2013-09-17 13:25:00,
2013-09-17 07:35:00,66.5,40.8,29.40,South,180,2.0,4.0,39,0.00,,,0.00,23,Wunderground v.1.15,2013-09-17 13:35:00,
2013-09-17 07:40:00,67.2,40.7,29.41,SSE,151,2.0,3.0,38,0.00,,,0.00,30,Wunderground v.1.15,2013-09-17 13:40:00,
2013-09-17 07:45:00,67.4,42.2,29.41,SE,129,3.0,3.0,40,0.00,,,0.00,33,Wunderground v.1.15,2013-09-17 13:45:00,
2013-09-17 07:50:00,67.2,42.7,29.41,West,274,2.0,14.0,41,0.00,,,0.00,40,Wunderground v.1.15,2013-09-17 13:50:00,
2013-09-17 07:55:00,67.5,41.7,29.41,SW,216,4.0,14.0,39,0.00,,,0.00,42,Wunderground v.1.15,2013-09-17 13:55:00,
2013-09-17 08:05:00,68.4,41.1,29.40,South,185,6.0,9.0,37,0.00,,,0.00,35,Wunderground v.1.15,2013-09-17 14:05:00,
2013-09-17 08:15:00,68.9,40.8,29.40,South,169,7.0,10.0,36,0.00,,,0.00,51,Wunderground v.1.15,2013-09-17 14:15:00,
2013-09-17 08:20:00,69.2,40.4,29.40,SW,233,7.0,12.0,35,0.00,,,0.00,58,Wunderground v.1.15,2013-09-17 14:20:00,
2013-09-17 08:30:00,69.3,40.5,29.40,SSW,211,5.0,7.0,35,0.00,,,0.00,47,Wunderground v.1.15,2013-09-17 14:30:00,
2013-09-17 08:35:00,69.3,40.5,29.41,WSW,240,6.0,15.0,35,0.00,,,0.00,35,Wunderground v.1.15,2013-09-17 14:35:00,
2013-09-17 08:40:00,69.5,40.6,29.41,West,262,9.0,9.0,35,0.00,,,0.00,32,Wunderground v.1.15,2013-09-17 14:40:00,
2013-09-17 08:45:00,69.5,40.6,29.41,SSW,194,9.0,9.0,35,0.00,,,0.00,30,Wunderground v.1.15,2013-09-17 14:45:00,
2013-09-17 08:50:00,69.5,39.9,29.42,SSW,210,8.0,8.0,34,0.00,,,0.00,28,Wunderground v.1.15,2013-09-17 14:50:00,
2013-09-17 09:00:00,69.9,39.5,29.42,SSE,158,12.0,13.0,33,0.00,,,0.00,28,Wunderground v.1.15,2013-09-17 15:00:00,
2013-09-17 09:10:00,69.3,40.5,29.42,SSW,192,19.0,19.0,35,0.00,,,0.00,26,Wunderground v.1.15,2013-09-17 15:10:00,
2013-09-17 09:15:00,68.3,40.3,29.45,South,180,21.0,22.0,36,0.00,,,0.00,30,Wunderground v.1.15,2013-09-17 15:15:00,
2013-09-17 09:20:00,67.4,40.9,29.44,SSE,160,22.0,24.0,38,0.00,,,0.00,40,Wunderground v.1.15,2013-09-17 15:20:00,
2013-09-17 09:25:00,66.4,41.3,29.45,SW,215,21.0,24.0,40,0.00,,,0.00,40,Wunderground v.1.15,2013-09-17 15:25:00,
2013-09-17 09:30:00,65.5,42.4,29.47,SSW,204,19.0,28.0,43,0.00,,,0.00,39,Wunderground v.1.15,2013-09-17 15:30:00,
2013-09-17 09:59:00,57.4,45.7,29.50,South,191,20.0,20.0,65,0.12,,,0.03,21,Wunderground v.1.15,2013-09-17 15:59:00,
2013-09-17 10:04:00,58.1,45.1,29.51,SSE,166,18.0,24.0,62,0.09,,,0.03,21,Wunderground v.1.15,2013-09-17 16:04:00,
2013-09-17 10:09:00,57.3,46.4,29.51,South,185,7.0,24.0,67,0.07,,,0.04,23,Wunderground v.1.15,2013-09-17 16:09:00,
2013-09-17 10:14:00,56.5,46.1,29.49,SSW,193,13.0,27.0,68,0.13,,,0.05,18,Wunderground v.1.15,2013-09-17 16:14:00,
2013-09-17 10:20:00,55.9,45.9,29.50,SW,226,21.0,21.0,69,0.20,,,0.07,30,Wunderground v.1.15,2013-09-17 16:20:00,
2013-09-17 10:25:00,56.4,44.8,29.49,SW,222,12.0,21.0,65,0.08,,,0.07,33,Wunderground v.1.15,2013-09-17 16:25:00,
2013-09-17 10:30:00,56.9,44.8,29.49,South,185,10.0,11.0,64,0.05,,,0.07,26,Wunderground v.1.15,2013-09-17 16:30:00,
2013-09-17 10:35:00,57.0,45.3,29.48,South,180,10.0,25.0,65,0.00,,,0.07,23,Wunderground v.1.15,2013-09-17 16:35:00,
2013-09-17 10:40:00,56.5,45.3,29.49,SSW,192,14.0,14.0,66,0.00,,,0.07,23,Wunderground v.1.15,2013-09-17 16:40:00,
2013-09-17 10:45:00,57.0,44.5,29.49,SSW,196,15.0,25.0,63,0.00,,,0.07,16,Wunderground v.1.15,2013-09-17 16:45:00,
2013-09-17 10:50:00,57.5,45.0,29.49,SSE,160,7.0,16.0,63,0.00,,,0.07,11,Wunderground v.1.15,2013-09-17 16:50:00,
2013-09-17 10:56:00,56.6,45.8,29.50,South,180,10.0,24.0,67,0.00,,,0.08,11,Wunderground v.1.15,2013-09-17 16:56:00,
2013-09-17 11:02:00,55.4,45.8,29.52,SE,143,15.0,15.0,70,0.15,,,0.09,11,Wunderground v.1.15,2013-09-17 17:02:00,
2013-09-17 11:07:00,55.0,45.8,29.53,SSE,150,9.0,15.0,71,0.53,,,0.11,11,Wunderground v.1.15,2013-09-17 17:07:00,
2013-09-17 11:12:00,55.0,46.1,29.53,SW,218,10.0,13.0,72,0.35,,,0.14,12,Wunderground v.1.15,2013-09-17 17:12:00,
2013-09-17 11:17:00,54.2,46.4,29.53,SSW,213,9.0,14.0,75,0.32,,,0.17,14,Wunderground v.1.15,2013-09-17 17:17:00,
2013-09-17 11:22:00,53.6,46.2,29.53,SSW,199,10.0,10.0,76,0.36,,,0.19,23,Wunderground v.1.15,2013-09-17 17:22:00,
2013-09-17 11:27:00,53.0,46.7,29.52,South,190,5.0,10.0,79,0.15,,,0.20,19,Wunderground v.1.15,2013-09-17 17:27:00,
2013-09-17 11:32:00,52.8,46.5,29.52,SW,220,8.0,11.0,79,0.20,,,0.22,33,Wunderground v.1.15,2013-09-17 17:32:00,
2013-09-17 11:37:00,52.4,46.4,29.51,South,185,10.0,11.0,80,0.10,,,0.22,40,Wunderground v.1.15,2013-09-17 17:37:00,
2013-09-17 11:42:00,52.2,46.5,29.50,South,185,4.0,12.0,81,0.06,,,0.23,51,Wunderground v.1.15,2013-09-17 17:42:00,
2013-09-17 11:47:00,52.0,46.7,29.49,SSE,161,8.0,14.0,82,0.06,,,0.23,83,Wunderground v.1.15,2013-09-17 17:47:00,
2013-09-17 11:52:00,52.1,46.8,29.48,South,180,6.0,10.0,82,0.09,,,0.24,104,Wunderground v.1.15,2013-09-17 17:52:00,
2013-09-17 11:57:00,53.0,47.0,29.48,South,185,4.0,13.0,80,0.06,,,0.24,70,Wunderground v.1.15,2013-09-17 17:57:00,
2013-09-17 12:02:00,53.1,47.1,29.47,SSW,204,5.0,11.0,80,0.05,,,0.25,65,Wunderground v.1.15,2013-09-17 18:02:00,
2013-09-17 12:07:00,52.9,46.9,29.46,SE,141,9.0,11.0,80,0.05,,,0.25,90,Wunderground v.1.15,2013-09-17 18:07:00,
2013-09-17 12:12:00,53.0,47.0,29.46,South,170,9.0,10.0,80,0.05,,,0.25,121,Wunderground v.1.15,2013-09-17 18:12:00,
2013-09-17 12:17:00,53.0,47.3,29.45,SSW,202,8.0,10.0,81,0.04,,,0.25,167,Wunderground v.1.15,2013-09-17 18:17:00,
2013-09-17 12:22:00,53.3,47.3,29.45,SSE,153,6.0,11.0,80,0.00,,,0.25,244,Wunderground v.1.15,2013-09-17 18:22:00,
2013-09-17 12:28:00,53.9,47.5,29.45,South,180,7.0,11.0,79,0.00,,,0.25,538,Wunderground v.1.15,2013-09-17 18:28:00,
2013-09-17 12:33:00,54.4,48.0,29.45,SSE,166,3.0,10.0,79,0.00,,,0.25,432,Wunderground v.1.15,2013-09-17 18:33:00,
2013-09-17 12:38:00,55.2,48.8,29.44,South,175,3.0,10.0,79,0.00,,,0.25,434,Wunderground v.1.15,2013-09-17 18:38:00,
2013-09-17 12:43:00,56.5,47.6,29.45,South,175,4.0,14.0,72,0.00,,,0.25,369,Wunderground v.1.15,2013-09-17 18:43:00,
2013-09-17 12:48:00,57.3,48.0,29.44,SSW,202,6.0,14.0,71,0.00,,,0.25,346,Wunderground v.1.15,2013-09-17 18:48:00,
2013-09-17 12:53:00,57.6,48.3,29.42,SSE,153,0.0,7.0,71,0.00,,,0.25,406,Wunderground v.1.15,2013-09-17 18:53:00,
2013-09-17 12:58:00,57.9,49.3,29.42,South,180,2.0,7.0,73,0.00,,,0.25,388,Wunderground v.1.15,2013-09-17 18:58:00,
2013-09-17 13:03:00,59.0,48.4,29.41,WSW,243,5.0,9.0,68,0.00,,,0.25,647,Wunderground v.1.15,2013-09-17 19:03:00,
2013-09-17 13:08:00,60.6,50.0,29.41,SSE,158,4.0,11.0,68,0.00,,,0.25,819,Wunderground v.1.15,2013-09-17 19:08:00,
2013-09-17 13:13:00,60.2,48.8,29.40,SE,137,9.0,13.0,66,0.00,,,0.25,570,Wunderground v.1.15,2013-09-17 19:13:00,
2013-09-17 13:18:00,59.7,48.7,29.40,SE,131,4.0,14.0,67,0.00,,,0.25,163,Wunderground v.1.15,2013-09-17 19:18:00,
2013-09-17 13:23:00,59.0,48.4,29.41,SE,145,9.0,11.0,68,0.00,,,0.25,134,Wunderground v.1.15,2013-09-17 19:23:00,
2013-09-17 13:28:00,59.0,48.4,29.40,SE,145,4.0,11.0,68,0.00,,,0.25,207,Wunderground v.1.15,2013-09-17 19:28:00,
2013-09-17 13:33:00,59.0,48.1,29.40,SE,146,5.0,11.0,67,0.00,,,0.25,193,Wunderground v.1.15,2013-09-17 19:33:00,
2013-09-17 13:38:00,59.0,48.4,29.41,South,185,4.0,11.0,68,0.00,,,0.25,127,Wunderground v.1.15,2013-09-17 19:38:00,
2013-09-17 13:43:00,59.0,48.1,29.42,South,175,8.0,13.0,67,0.00,,,0.25,51,Wunderground v.1.15,2013-09-17 19:43:00,
2013-09-17 13:48:00,60.6,46.6,29.43,SSE,166,8.0,26.0,60,0.00,,,0.25,23,Wunderground v.1.15,2013-09-17 19:48:00,
2013-09-17 13:53:00,60.1,47.9,29.44,SW,223,11.0,21.0,64,0.00,,,0.26,14,Wunderground v.1.15,2013-09-17 19:53:00,
2013-09-17 13:58:00,58.8,47.9,29.43,SW,226,16.0,22.0,67,0.10,,,0.27,14,Wunderground v.1.15,2013-09-17 19:58:00,
2013-09-17 14:03:00,58.5,47.6,29.44,SSE,168,12.0,21.0,67,0.10,,,0.28,14,Wunderground v.1.15,2013-09-17 20:03:00,
2013-09-17 14:08:00,58.2,47.3,29.40,SSW,208,8.0,21.0,67,0.17,,,0.29,18,Wunderground v.1.15,2013-09-17 20:08:00,
2013-09-17 14:13:00,57.8,48.1,29.39,South,175,2.0,9.0,70,0.07,,,0.29,32,Wunderground v.1.15,2013-09-17 20:13:00,
2013-09-17 14:18:00,56.9,48.3,29.38,SSW,206,5.0,13.0,73,0.04,,,0.29,30,Wunderground v.1.15,2013-09-17 20:18:00,
2013-09-17 14:23:00,56.6,48.4,29.37,SW,234,6.0,9.0,74,0.00,,,0.29,30,Wunderground v.1.15,2013-09-17 20:23:00,
2013-09-17 14:28:00,56.3,49.2,29.37,SSW,202,9.0,16.0,77,0.00,,,0.29,47,Wunderground v.1.15,2013-09-17 20:28:00,
2013-09-17 14:33:00,56.6,47.3,29.36,ESE,122,8.0,10.0,71,0.00,,,0.29,72,Wunderground v.1.15,2013-09-17 20:33:00,
2013-09-17 14:38:00,57.3,48.0,29.36,SSW,207,0.0,10.0,71,0.00,,,0.29,163,Wunderground v.1.15,2013-09-17 20:38:00,
2013-09-17 14:43:00,57.6,47.5,29.35,South,180,3.0,3.0,69,0.00,,,0.29,413,Wunderground v.1.15,2013-09-17 20:43:00,
2013-09-17 14:48:00,58.6,49.2,29.35,SE,124,7.0,11.0,71,0.00,,,0.29,624,Wunderground v.1.15,2013-09-17 20:48:00,
2013-09-17 14:53:00,59.0,49.2,29.36,SSW,208,0.0,8.0,70,0.00,,,0.29,543,Wunderground v.1.15,2013-09-17 20:53:00,
2013-09-17 14:58:00,60.0,50.6,29.36,WSW,242,1.0,8.0,71,0.00,,,0.29,860,Wunderground v.1.15,2013-09-17 20:58:00,
2013-09-17 15:03:00,61.2,50.2,29.37,SSE,167,1.0,6.0,67,0.00,,,0.29,791,Wunderground v.1.15,2013-09-17 21:03:00,
2013-09-17 15:08:00,62.6,51.1,29.37,SE,142,0.0,6.0,66,0.00,,,0.29,745,Wunderground v.1.15,2013-09-17 21:08:00,
2013-09-17 15:14:00,64.0,52.8,29.37,WNW,299,0.0,2.0,67,0.00,,,0.29,731,Wunderground v.1.15,2013-09-17 21:14:00,
2013-09-17 15:19:00,64.8,51.9,29.35,ENE,70,6.0,6.0,63,0.00,,,0.29,698,Wunderground v.1.15,2013-09-17 21:19:00,
2013-09-17 15:24:00,65.8,51.5,29.35,ESE,103,1.0,5.0,60,0.00,,,0.29,686,Wunderground v.1.15,2013-09-17 21:24:00,
2013-09-17 15:29:00,67.2,53.7,29.35,NE,41,3.0,5.0,62,0.00,,,0.29,642,Wunderground v.1.15,2013-09-17 21:29:00,
2013-09-17 15:34:00,67.9,53.0,29.34,NNW,331,0.0,2.0,59,0.00,,,0.29,645,Wunderground v.1.15,2013-09-17 21:34:00,
2013-09-17 15:39:00,68.4,51.6,29.34,North,350,0.0,2.0,55,0.00,,,0.29,243,Wunderground v.1.15,2013-09-17 21:39:00,
2013-09-17 15:44:00,68.4,50.6,29.34,NNW,348,0.0,2.0,53,0.00,,,0.29,338,Wunderground v.1.15,2013-09-17 21:44:00,
2013-09-17 15:49:00,68.2,51.4,29.34,West,281,1.0,6.0,55,0.00,,,0.29,376,Wunderground v.1.15,2013-09-17 21:49:00,
2013-09-17 15:54:00,67.2,51.4,29.34,SW,216,2.0,6.0,57,0.00,,,0.29,346,Wunderground v.1.15,2013-09-17 21:54:00,
2013-09-17 15:59:00,66.3,50.6,29.33,SSW,210,3.0,6.0,57,0.00,,,0.29,350,Wunderground v.1.15,2013-09-17 21:59:00,
2013-09-17 16:05:00,66.0,51.3,29.33,WSW,245,1.0,3.0,59,0.00,,,0.29,297,Wunderground v.1.15,2013-09-17 22:05:00,
2013-09-17 16:10:00,65.9,51.2,29.33,SW,233,2.0,2.0,59,0.00,,,0.29,279,Wunderground v.1.15,2013-09-17 22:10:00,
2013-09-17 16:15:00,66.0,51.3,29.33,NW,307,2.0,6.0,59,0.00,,,0.29,272,Wunderground v.1.15,2013-09-17 22:15:00,
2013-09-17 16:20:00,65.7,51.0,29.32,NNE,12,2.0,2.0,59,0.00,,,0.29,315,Wunderground v.1.15,2013-09-17 22:20:00,
2013-09-17 16:25:00,65.4,50.7,29.33,NW,316,1.0,7.0,59,0.00,,,0.29,362,Wunderground v.1.15,2013-09-17 22:25:00,
2013-09-17 16:30:00,65.4,50.7,29.33,NNW,335,2.0,2.0,59,0.00,,,0.29,229,Wunderground v.1.15,2013-09-17 22:30:00,
2013-09-17 16:35:00,65.3,51.1,29.33,North,352,0.0,6.0,60,0.00,,,0.29,204,Wunderground v.1.15,2013-09-17 22:35:00,
2013-09-17 16:40:00,65.2,51.0,29.33,North,349,0.0,1.0,60,0.00,,,0.29,213,Wunderground v.1.15,2013-09-17 22:40:00,
2013-09-17 16:45:00,65.1,50.9,29.33,NNW,345,0.0,2.0,60,0.00,,,0.29,195,Wunderground v.1.15,2013-09-17 22:45:00,
2013-09-17 16:50:00,65.0,50.8,29.32,NE,40,0.0,0.0,60,0.00,,,0.29,160,Wunderground v.1.15,2013-09-17 22:50:00,
2013-09-17 16:55:00,64.8,51.0,29.32,NNE,32,1.0,2.0,61,0.00,,,0.29,148,Wunderground v.1.15,2013-09-17 22:55:00,
2013-09-17 17:00:00,64.6,51.3,29.32,North,352,0.0,0.0,62,0.00,,,0.29,148,Wunderground v.1.15,2013-09-17 23:00:00,
2013-09-17 17:05:00,64.4,51.5,29.31,NNW,344,0.0,1.0,63,0.00,,,0.29,134,Wunderground v.1.15,2013-09-17 23:05:00,
2013-09-17 17:10:00,64.3,51.4,29.32,NNW,328,0.0,0.0,63,0.00,,,0.29,109,Wunderground v.1.15,2013-09-17 23:10:00,
2013-09-17 17:15:00,64.2,51.8,29.32,NNW,330,0.0,0.0,64,0.00,,,0.29,83,Wunderground v.1.15,2013-09-17 23:15:00,
2013-09-17 17:20:00,64.0,52.0,29.32,NW,324,0.0,0.0,65,0.00,,,0.29,60,Wunderground v.1.15,2013-09-17 23:20:00,
2013-09-17 17:25:00,63.9,51.5,29.31,NW,324,0.0,0.0,64,0.00,,,0.29,58,Wunderground v.1.15,2013-09-17 23:25:00,
2013-09-17 17:30:00,63.8,51.8,29.32,NW,307,0.0,5.0,65,0.00,,,0.29,25,Wunderground v.1.15,2013-09-17 23:30:00,
2013-09-17 17:35:00,63.5,51.9,29.32,WNW,284,0.0,5.0,66,0.00,,,0.29,25,Wunderground v.1.15,2013-09-17 23:35:00,
2013-09-17 17:40:00,63.3,50.9,29.32,SW,218,0.0,0.0,64,0.00,,,0.29,26,Wunderground v.1.15,2013-09-17 23:40:00,
2013-09-17 17:45:00,63.2,51.2,29.34,SW,218,0.0,0.0,65,0.00,,,0.29,0,Wunderground v.1.15,2013-09-17 23:45:00,
2013-09-17 17:50:00,62.7,51.2,29.36,NW,306,9.0,17.0,66,0.00,,,0.29,0,Wunderground v.1.15,2013-09-17 23:50:00,
2013-09-17 17:55:00,61.4,49.5,29.37,NNW,327,11.0,22.0,65,0.50,,,0.33,0,Wunderground v.1.15,2013-09-17 23:55:00,
2013-09-17 18:01:00,59.9,49.7,29.38,South,180,2.0,13.0,69,0.19,,,0.35,0,Wunderground v.1.15,2013-09-18 00:01:00,
2013-09-17 18:07:00,59.0,48.4,29.39,WSW,258,1.0,13.0,68,0.21,,,0.37,5,Wunderground v.1.15,2013-09-18 00:07:00,
2013-09-17 18:12:00,58.0,46.7,29.40,WSW,240,11.0,21.0,66,0.13,,,0.38,5,Wunderground v.1.15,2013-09-18 00:12:00,
2013-09-17 18:17:00,57.2,46.7,29.38,West,266,11.0,21.0,68,0.12,,,0.39,5,Wunderground v.1.15,2013-09-18 00:17:00,
2013-09-17 18:22:00,56.8,47.1,29.38,WNW,284,10.0,14.0,70,0.06,,,0.39,0,Wunderground v.1.15,2013-09-18 00:22:00,
2013-09-17 18:27:00,56.7,47.0,29.38,SSW,206,6.0,14.0,70,0.04,,,0.39,0,Wunderground v.1.15,2013-09-18 00:27:00,
2013-09-17 18:32:00,56.7,47.0,29.39,SW,216,11.0,15.0,70,0.04,,,0.40,0,Wunderground v.1.15,2013-09-18 00:32:00,
2013-09-17 18:37:00,56.5,46.8,29.39,SSE,163,8.0,17.0,70,0.23,,,0.42,7,Wunderground v.1.15,2013-09-18 00:37:00,
2013-09-17 18:42:00,55.9,46.3,29.38,SSW,203,8.0,15.0,70,0.18,,,0.43,16,Wunderground v.1.15,2013-09-18 00:42:00,
2013-09-17 18:47:00,55.5,46.6,29.38,SW,230,5.0,15.0,72,0.12,,,0.44,28,Wunderground v.1.15,2013-09-18 00:47:00,
2013-09-17 18:52:00,55.1,46.6,29.37,SW,231,7.0,12.0,73,0.18,,,0.46,39,Wunderground v.1.15,2013-09-18 00:52:00,
2013-09-17 18:57:00,54.7,46.6,29.36,SW,231,12.0,15.0,74,0.16,,,0.47,35,Wunderground v.1.15,2013-09-18 00:57:00,
2013-09-17 19:02:00,54.6,46.1,29.36,WSW,239,9.0,16.0,73,0.09,,,0.47,26,Wunderground v.1.15,2013-09-18 01:02:00,
2013-09-17 19:07:00,54.6,45.8,29.36,SW,233,8.0,23.0,72,0.05,,,0.47,18,Wunderground v.1.15,2013-09-18 01:07:00,
2013-09-17 19:12:00,54.8,45.6,29.36,SSW,213,10.0,18.0,71,0.04,,,0.47,11,Wunderground v.1.15,2013-09-18 01:12:00,
2013-09-17 19:17:00,55.3,44.9,29.35,SW,224,16.0,22.0,68,0.00,,,0.47,7,Wunderground v.1.15,2013-09-18 01:17:00,
2013-09-17 19:22:00,55.8,45.0,29.35,SSW,212,16.0,21.0,67,0.00,,,0.47,0,Wunderground v.1.15,2013-09-18 01:22:00,
2013-09-17 19:27:00,55.8,44.6,29.34,SW,234,9.0,24.0,66,0.00,,,0.47,0,Wunderground v.1.15,2013-09-18 01:27:00,
2013-09-17 19:32:00,55.9,44.3,29.33,SSW,194,26.0,26.0,65,0.00,,,0.47,0,Wunderground v.1.15,2013-09-18 01:32:00,
2013-09-17 19:37:00,56.6,43.7,29.34,SSW,205,19.0,28.0,62,0.00,,,0.47,0,Wunderground v.1.15,2013-09-18 01:37:00,
2013-09-17 19:42:00,57.1,43.8,29.35,SW,214,20.0,30.0,61,0.00,,,0.47,0,Wunderground v.1.15,2013-09-18 01:42:00,
2013-09-17 19:47:00,56.7,44.2,29.35,SSW,202,19.0,30.0,63,0.00,,,0.47,0,Wunderground v.1.15,2013-09-18 01:47:00,
2013-09-17 19:52:00,56.4,44.4,29.36,SSW,195,12.0,25.0,64,0.00,,,0.47,0,Wunderground v.1.15,2013-09-18 01:52:00,
2013-09-17 19:57:00,56.2,44.2,29.37,WSW,247,12.0,25.0,64,0.00,,,0.48,0,Wunderground v.1.15,2013-09-18 01:57:00,
2013-09-17 20:02:00,55.6,44.8,29.38,WSW,249,17.0,19.0,67,0.00,,,0.48,0,Wunderground v.1.15,2013-09-18 02:02:00,
2013-09-17 20:07:00,55.5,44.3,29.38,SW,231,8.0,23.0,66,0.00,,,0.48,0,Wunderground v.1.15,2013-09-18 02:07:00,
2013-09-17 20:12:00,55.9,44.3,29.39,West,281,18.0,19.0,65,0.00,,,0.48,0,Wunderground v.1.15,2013-09-18 02:12:00,
2013-09-17 20:17:00,56.4,44.4,29.40,WSW,251,19.0,26.0,64,0.00,,,0.48,0,Wunderground v.1.15,2013-09-18 02:17:00,
2013-09-17 20:22:00,56.3,44.7,29.39,WSW,248,12.0,25.0,65,0.00,,,0.48,0,Wunderground v.1.15,2013-09-18 02:22:00,
2013-09-17 20:27:00,56.2,44.2,29.39,SW,221,12.0,27.0,64,0.00,,,0.49,0,Wunderground v.1.15,2013-09-18 02:27:00,
2013-09-17 20:32:00,56.0,44.0,29.38,WSW,247,9.0,22.0,64,0.00,,,0.49,0,Wunderground v.1.15,2013-09-18 02:32:00,
2013-09-17 20:37:00,56.1,43.7,29.38,SE,130,14.0,28.0,63,0.00,,,0.49,0,Wunderground v.1.15,2013-09-18 02:37:00,
2013-09-17 20:42:00,56.1,43.3,29.38,SSW,202,17.0,29.0,62,0.00,,,0.49,0,Wunderground v.1.15,2013-09-18 02:42:00,
2013-09-17 20:47:00,55.9,43.1,29.36,SSW,194,9.0,29.0,62,0.00,,,0.49,0,Wunderground v.1.15,2013-09-18 02:47:00,
2013-09-17 20:52:00,56.1,42.8,29.36,WSW,246,10.0,21.0,61,0.00,,,0.49,0,Wunderground v.1.15,2013-09-18 02:52:00,
2013-09-17 20:57:00,56.4,42.2,29.36,WNW,282,18.0,26.0,59,0.00,,,0.49,0,Wunderground v.1.15,2013-09-18 02:57:00,
2013-09-17 21:02:00,57.0,41.9,29.38,WSW,247,18.0,26.0,57,0.00,,,0.49,0,Wunderground v.1.15,2013-09-18 03:02:00,
2013-09-17 21:08:00,57.7,42.1,29.39,WSW,237,11.0,26.0,56,0.00,,,0.49,0,Wunderground v.1.15,2013-09-18 03:08:00,
2013-09-17 21:13:00,58.0,43.3,29.39,WSW,255,5.0,15.0,58,0.00,,,0.49,0,Wunderground v.1.15,2013-09-18 03:13:00,
2013-09-17 21:18:00,57.7,43.9,29.39,SW,233,4.0,15.0,60,0.00,,,0.49,0,Wunderground v.1.15,2013-09-18 03:18:00,
2013-09-17 21:23:00,57.4,44.5,29.41,SW,233,0.0,5.0,62,0.00,,,0.49,0,Wunderground v.1.15,2013-09-18 03:23:00,
2013-09-17 21:28:00,57.3,45.2,29.41,SW,233,0.0,5.0,64,0.00,,,0.49,0,Wunderground v.1.15,2013-09-18 03:28:00,
2013-09-17 21:33:00,57.1,45.4,29.42,SW,233,2.0,2.0,65,0.00,,,0.49,0,Wunderground v.1.15,2013-09-18 03:33:00,
2013-09-17 21:38:00,56.6,46.5,29.42,NW,306,4.0,5.0,69,0.00,,,0.49,0,Wunderground v.1.15,2013-09-18 03:38:00,
2013-09-17 21:43:00,55.9,45.9,29.41,NW,314,7.0,13.0,69,0.00,,,0.49,0,Wunderground v.1.15,2013-09-18 03:43:00,
2013-09-17 21:48:00,55.8,46.2,29.41,WNW,283,3.0,13.0,70,0.00,,,0.49,0,Wunderground v.1.15,2013-09-18 03:48:00,
2013-09-17 21:53:00,55.6,46.0,29.41,North,10,0.0,8.0,70,0.00,,,0.49,0,Wunderground v.1.15,2013-09-18 03:53:00,
2013-09-17 21:58:00,55.2,45.6,29.41,WNW,299,7.0,14.0,70,0.00,,,0.49,0,Wunderground v.1.15,2013-09-18 03:58:00,
2013-09-17 22:01:00,55.1,45.5,29.41,NW,323,9.0,12.0,70,0.00,,,0.49,0,Wunderground v.1.15,2013-09-18 04:01:00,
2013-09-17 22:02:00,55.1,45.5,29.41,WNW,291,9.0,12.0,70,0.00,,,0.49,0,Wunderground v.1.15,2013-09-18 04:02:00,
2013-09-17 22:03:00,55.0,45.4,29.41,NW,323,6.0,12.0,70,0.00,,,0.49,0,Wunderground v.1.15,2013-09-18 04:03:00,
2013-09-17 22:08:00,54.9,45.7,29.39,NNE,21,0.0,12.0,71,0.00,,,0.49,0,Wunderground v.1.15,2013-09-18 04:08:00,
2013-09-17 22:13:00,54.6,45.4,29.37,East,97,0.0,4.0,71,0.00,,,0.49,0,Wunderground v.1.15,2013-09-18 04:13:00,
2013-09-17 22:18:00,54.5,45.3,29.39,South,185,3.0,4.0,71,0.00,,,0.49,0,Wunderground v.1.15,2013-09-18 04:18:00,
2013-09-17 22:23:00,54.4,45.2,29.38,West,272,5.0,7.0,71,0.00,,,0.49,0,Wunderground v.1.15,2013-09-18 04:23:00,
2013-09-17 22:28:00,54.5,44.9,29.39,West,268,0.0,7.0,70,0.00,,,0.49,0,Wunderground v.1.15,2013-09-18 04:28:00,
2013-09-17 22:33:00,54.4,45.6,29.40,SW,217,0.0,1.0,72,0.00,,,0.49,0,Wunderground v.1.15,2013-09-18 04:33:00,
2013-09-17 22:38:00,54.3,45.1,29.39,SSW,199,0.0,1.0,71,0.00,,,0.49,0,Wunderground v.1.15,2013-09-18 04:38:00,
2013-09-17 22:43:00,54.2,45.7,29.39,SSW,199,0.0,0.0,73,0.00,,,0.49,0,Wunderground v.1.15,2013-09-18 04:43:00,
2013-09-17 22:48:00,54.1,45.6,29.39,SSW,199,0.0,1.0,73,0.00,,,0.49,0,Wunderground v.1.15,2013-09-18 04:48:00,
2013-09-17 22:53:00,54.0,45.5,29.38,SSW,199,0.0,0.0,73,0.00,,,0.49,0,Wunderground v.1.15,2013-09-18 04:53:00,
2013-09-17 22:58:00,53.7,46.0,29.38,SSW,199,0.0,0.0,75,0.00,,,0.49,0,Wunderground v.1.15,2013-09-18 04:58:00,
2013-09-17 23:03:00,53.4,46.0,29.38,SSW,199,0.0,0.0,76,0.00,,,0.49,0,Wunderground v.1.15,2013-09-18 05:03:00,
2013-09-17 23:08:00,53.1,45.7,29.38,SSW,199,0.0,0.0,76,0.00,,,0.49,0,Wunderground v.1.15,2013-09-18 05:08:00,
2013-09-17 23:13:00,53.0,45.6,29.38,SSW,199,0.0,0.0,76,0.00,,,0.49,0,Wunderground v.1.15,2013-09-18 05:13:00,
2013-09-17 23:18:00,52.8,45.4,29.38,SSW,199,0.0,0.0,76,0.00,,,0.49,0,Wunderground v.1.15,2013-09-18 05:18:00,
2013-09-17 23:23:00,52.6,45.6,29.38,SSW,199,0.0,0.0,77,0.00,,,0.49,0,Wunderground v.1.15,2013-09-18 05:23:00,
2013-09-17 23:28:00,52.5,45.5,29.38,SSW,199,1.0,3.0,77,0.00,,,0.49,0,Wunderground v.1.15,2013-09-18 05:28:00,
2013-09-17 23:32:00,52.4,45.4,29.38,SSW,199,2.0,4.0,77,0.00,,,0.49,0,Wunderground v.1.15,2013-09-18 05:32:00,
2013-09-17 23:37:00,52.3,45.3,29.38,SSW,199,0.0,4.0,77,0.00,,,0.49,0,Wunderground v.1.15,2013-09-18 05:37:00,
2013-09-17 23:42:00,52.2,45.2,29.38,WNW,288,1.0,5.0,77,0.00,,,0.49,0,Wunderground v.1.15,2013-09-18 05:42:00,
2013-09-17 23:47:00,52.1,45.1,29.37,WNW,301,3.0,5.0,77,0.00,,,0.49,0,Wunderground v.1.15,2013-09-18 05:47:00,
2013-09-17 23:52:00,52.1,45.1,29.37,West,278,5.0,6.0,77,0.00,,,0.49,0,Wunderground v.1.15,2013-09-18 05:52:00,
2013-09-17 23:57:00,52.2,44.9,29.37,WNW,299,3.0,6.0,76,0.00,,,0.49,0,Wunderground v.1.15,2013-09-18 05:57:00,